sensor_id;sensor_type;location;lat;lon;timestamp;P1;durP1;ratioP1;P2;durP2;ratioP2
79399;SDS011;68856;45.586;10.264;2023-04-15T00:00:40;4.03;;;2.60;;
79399;SDS011;68856;45.586;10.264;2023-04-15T00:03:07;2.78;;;2.15;;
79399;SDS011;68856;45.586;10.264;2023-04-15T00:05:33;4.72;;;3.17;;
79399;SDS011;68856;45.586;10.264;2023-04-15T00:07:59;2.53;;;2.28;;
79399;SDS011;68856;45.586;10.264;2023-04-15T00:10:26;2.97;;;2.55;;
79399;SDS011;68856;45.586;10.264;2023-04-15T00:12:52;2.70;;;2.30;;
79399;SDS011;68856;45.586;10.264;2023-04-15T00:15:19;3.20;;;1.92;;
79399;SDS011;68856;45.586;10.264;2023-04-15T00:17:45;2.88;;;2.30;;
79399;SDS011;68856;45.586;10.264;2023-04-15T00:20:14;2.03;;;1.73;;
79399;SDS011;68856;45.586;10.264;2023-04-15T00:22:40;4.25;;;2.30;;
79399;SDS011;68856;45.586;10.264;2023-04-15T00:25:06;2.95;;;1.98;;
79399;SDS011;68856;45.586;10.264;2023-04-15T00:27:33;2.47;;;1.95;;
79399;SDS011;68856;45.586;10.264;2023-04-15T00:29:59;2.70;;;2.20;;
79399;SDS011;68856;45.586;10.264;2023-04-15T00:32:26;3.30;;;1.95;;
79399;SDS011;68856;45.586;10.264;2023-04-15T00:34:52;4.35;;;2.70;;
79399;SDS011;68856;45.586;10.264;2023-04-15T00:37:18;2.55;;;2.35;;
79399;SDS011;68856;45.586;10.264;2023-04-15T00:39:44;4.70;;;2.47;;
79399;SDS011;68856;45.586;10.264;2023-04-15T00:42:11;2.40;;;2.20;;
79399;SDS011;68856;45.586;10.264;2023-04-15T00:44:38;4.15;;;2.90;;
79399;SDS011;68856;45.586;10.264;2023-04-15T00:47:05;3.95;;;2.50;;
79399;SDS011;68856;45.586;10.264;2023-04-15T00:49:32;2.83;;;2.38;;
79399;SDS011;68856;45.586;10.264;2023-04-15T00:51:58;3.42;;;2.28;;
79399;SDS011;68856;45.586;10.264;2023-04-15T00:54:24;3.72;;;2.42;;
79399;SDS011;68856;45.586;10.264;2023-04-15T00:56:51;3.50;;;2.35;;
79399;SDS011;68856;45.586;10.264;2023-04-15T00:59:17;3.00;;;2.20;;
79399;SDS011;68856;45.586;10.264;2023-04-15T01:01:44;3.03;;;2.10;;
79399;SDS011;68856;45.586;10.264;2023-04-15T01:04:11;2.47;;;2.22;;
79399;SDS011;68856;45.586;10.264;2023-04-15T01:06:37;5.45;;;2.30;;
79399;SDS011;68856;45.586;10.264;2023-04-15T01:09:03;3.83;;;2.35;;
79399;SDS011;68856;45.586;10.264;2023-04-15T01:11:30;3.92;;;2.10;;
79399;SDS011;68856;45.586;10.264;2023-04-15T01:14:00;4.50;;;2.40;;
79399;SDS011;68856;45.586;10.264;2023-04-15T01:16:26;3.15;;;1.90;;
79399;SDS011;68856;45.586;10.264;2023-04-15T01:18:53;3.20;;;2.40;;
79399;SDS011;68856;45.586;10.264;2023-04-15T01:21:19;2.45;;;1.85;;
79399;SDS011;68856;45.586;10.264;2023-04-15T01:23:46;2.92;;;2.42;;
79399;SDS011;68856;45.586;10.264;2023-04-15T01:26:13;2.22;;;1.95;;
79399;SDS011;68856;45.586;10.264;2023-04-15T01:28:40;3.50;;;2.05;;
79399;SDS011;68856;45.586;10.264;2023-04-15T01:33:34;2.75;;;2.20;;
79399;SDS011;68856;45.586;10.264;2023-04-15T01:36:00;2.75;;;1.90;;
79399;SDS011;68856;45.586;10.264;2023-04-15T01:38:27;3.03;;;1.75;;
79399;SDS011;68856;45.586;10.264;2023-04-15T01:40:55;2.05;;;1.80;;
79399;SDS011;68856;45.586;10.264;2023-04-15T01:43:22;2.47;;;2.00;;
79399;SDS011;68856;45.586;10.264;2023-04-15T01:45:49;2.63;;;2.10;;
79399;SDS011;68856;45.586;10.264;2023-04-15T01:48:15;2.35;;;2.10;;
79399;SDS011;68856;45.586;10.264;2023-04-15T01:50:42;3.40;;;2.20;;
79399;SDS011;68856;45.586;10.264;2023-04-15T01:53:08;2.63;;;1.95;;
79399;SDS011;68856;45.586;10.264;2023-04-15T01:55:35;2.65;;;1.83;;
79399;SDS011;68856;45.586;10.264;2023-04-15T01:58:01;2.08;;;1.88;;
79399;SDS011;68856;45.586;10.264;2023-04-15T02:00:28;2.78;;;1.73;;
79399;SDS011;68856;45.586;10.264;2023-04-15T02:02:54;2.53;;;1.92;;
79399;SDS011;68856;45.586;10.264;2023-04-15T02:05:20;2.72;;;1.92;;
79399;SDS011;68856;45.586;10.264;2023-04-15T02:07:47;2.72;;;2.10;;
79399;SDS011;68856;45.586;10.264;2023-04-15T02:10:14;2.20;;;2.00;;
79399;SDS011;68856;45.586;10.264;2023-04-15T02:12:40;3.95;;;2.42;;
79399;SDS011;68856;45.586;10.264;2023-04-15T02:15:07;2.92;;;1.67;;
79399;SDS011;68856;45.586;10.264;2023-04-15T02:17:34;2.90;;;1.65;;
79399;SDS011;68856;45.586;10.264;2023-04-15T02:20:01;1.67;;;1.40;;
79399;SDS011;68856;45.586;10.264;2023-04-15T02:22:32;2.35;;;1.85;;
79399;SDS011;68856;45.586;10.264;2023-04-15T02:24:59;1.58;;;1.40;;
79399;SDS011;68856;45.586;10.264;2023-04-15T02:27:25;2.92;;;2.53;;
79399;SDS011;68856;45.586;10.264;2023-04-15T02:29:52;2.20;;;1.90;;
79399;SDS011;68856;45.586;10.264;2023-04-15T02:32:19;2.20;;;1.58;;
79399;SDS011;68856;45.586;10.264;2023-04-15T02:34:47;4.72;;;1.75;;
79399;SDS011;68856;45.586;10.264;2023-04-15T02:37:13;4.72;;;2.90;;
79399;SDS011;68856;45.586;10.264;2023-04-15T02:39:40;3.38;;;2.50;;
79399;SDS011;68856;45.586;10.264;2023-04-15T02:42:06;5.60;;;2.63;;
79399;SDS011;68856;45.586;10.264;2023-04-15T02:44:32;3.88;;;2.08;;
79399;SDS011;68856;45.586;10.264;2023-04-15T02:47:00;1.83;;;1.70;;
79399;SDS011;68856;45.586;10.264;2023-04-15T02:49:27;4.30;;;2.33;;
79399;SDS011;68856;45.586;10.264;2023-04-15T02:51:56;1.85;;;1.70;;
79399;SDS011;68856;45.586;10.264;2023-04-15T02:54:24;2.38;;;1.70;;
79399;SDS011;68856;45.586;10.264;2023-04-15T02:56:54;2.40;;;2.20;;
79399;SDS011;68856;45.586;10.264;2023-04-15T02:59:20;2.65;;;1.75;;
79399;SDS011;68856;45.586;10.264;2023-04-15T03:01:47;2.38;;;2.00;;
79399;SDS011;68856;45.586;10.264;2023-04-15T03:04:13;1.80;;;1.70;;
79399;SDS011;68856;45.586;10.264;2023-04-15T03:06:39;4.15;;;1.88;;
79399;SDS011;68856;45.586;10.264;2023-04-15T03:09:06;2.90;;;1.40;;
79399;SDS011;68856;45.586;10.264;2023-04-15T03:11:32;2.88;;;2.00;;
79399;SDS011;68856;45.586;10.264;2023-04-15T03:14:01;2.30;;;1.77;;
79399;SDS011;68856;45.586;10.264;2023-04-15T03:16:27;2.17;;;1.73;;
79399;SDS011;68856;45.586;10.264;2023-04-15T03:18:53;2.85;;;1.35;;
79399;SDS011;68856;45.586;10.264;2023-04-15T03:21:19;2.95;;;1.60;;
79399;SDS011;68856;45.586;10.264;2023-04-15T03:23:47;1.50;;;1.10;;
79399;SDS011;68856;45.586;10.264;2023-04-15T03:26:26;2.08;;;1.83;;
79399;SDS011;68856;45.586;10.264;2023-04-15T03:28:54;2.25;;;1.77;;
79399;SDS011;68856;45.586;10.264;2023-04-15T03:31:20;1.63;;;1.40;;
79399;SDS011;68856;45.586;10.264;2023-04-15T03:33:47;1.60;;;1.48;;
79399;SDS011;68856;45.586;10.264;2023-04-15T03:36:13;2.55;;;1.60;;
79399;SDS011;68856;45.586;10.264;2023-04-15T03:38:40;2.30;;;1.70;;
79399;SDS011;68856;45.586;10.264;2023-04-15T03:41:07;1.23;;;1.13;;
79399;SDS011;68856;45.586;10.264;2023-04-15T03:43:33;3.20;;;1.70;;
79399;SDS011;68856;45.586;10.264;2023-04-15T03:46:00;1.85;;;1.75;;
79399;SDS011;68856;45.586;10.264;2023-04-15T03:48:26;2.63;;;2.00;;
79399;SDS011;68856;45.586;10.264;2023-04-15T03:50:53;4.15;;;1.92;;
79399;SDS011;68856;45.586;10.264;2023-04-15T03:53:20;1.67;;;1.50;;
79399;SDS011;68856;45.586;10.264;2023-04-15T03:55:47;2.95;;;2.50;;
79399;SDS011;68856;45.586;10.264;2023-04-15T03:58:13;1.67;;;1.55;;
79399;SDS011;68856;45.586;10.264;2023-04-15T04:00:39;3.28;;;1.90;;
79399;SDS011;68856;45.586;10.264;2023-04-15T04:03:06;2.08;;;1.77;;
79399;SDS011;68856;45.586;10.264;2023-04-15T04:05:33;2.97;;;1.42;;
79399;SDS011;68856;45.586;10.264;2023-04-15T04:08:02;2.10;;;1.20;;
79399;SDS011;68856;45.586;10.264;2023-04-15T04:10:29;1.52;;;1.33;;
79399;SDS011;68856;45.586;10.264;2023-04-15T04:12:55;3.83;;;1.33;;
79399;SDS011;68856;45.586;10.264;2023-04-15T04:15:22;2.10;;;1.42;;
79399;SDS011;68856;45.586;10.264;2023-04-15T04:17:48;2.25;;;1.10;;
79399;SDS011;68856;45.586;10.264;2023-04-15T04:20:15;2.17;;;1.35;;
79399;SDS011;68856;45.586;10.264;2023-04-15T04:22:41;1.30;;;1.05;;
79399;SDS011;68856;45.586;10.264;2023-04-15T04:25:08;3.30;;;1.30;;
79399;SDS011;68856;45.586;10.264;2023-04-15T04:27:35;3.50;;;1.90;;
79399;SDS011;68856;45.586;10.264;2023-04-15T04:30:01;3.45;;;1.70;;
79399;SDS011;68856;45.586;10.264;2023-04-15T04:32:28;1.95;;;1.17;;
79399;SDS011;68856;45.586;10.264;2023-04-15T04:34:54;5.47;;;1.50;;
79399;SDS011;68856;45.586;10.264;2023-04-15T04:37:20;1.10;;;1.00;;
79399;SDS011;68856;45.586;10.264;2023-04-15T04:39:47;3.90;;;1.23;;
79399;SDS011;68856;45.586;10.264;2023-04-15T04:42:14;3.15;;;2.10;;
79399;SDS011;68856;45.586;10.264;2023-04-15T04:44:40;3.88;;;2.25;;
79399;SDS011;68856;45.586;10.264;2023-04-15T04:47:06;2.92;;;2.40;;
79399;SDS011;68856;45.586;10.264;2023-04-15T04:49:33;5.50;;;2.20;;
79399;SDS011;68856;45.586;10.264;2023-04-15T04:51:59;10.93;;;2.17;;
79399;SDS011;68856;45.586;10.264;2023-04-15T04:54:26;3.42;;;2.00;;
79399;SDS011;68856;45.586;10.264;2023-04-15T04:56:52;4.85;;;2.05;;
79399;SDS011;68856;45.586;10.264;2023-04-15T04:59:19;6.07;;;2.05;;
79399;SDS011;68856;45.586;10.264;2023-04-15T05:01:45;3.00;;;2.08;;
79399;SDS011;68856;45.586;10.264;2023-04-15T05:04:11;5.07;;;1.95;;
79399;SDS011;68856;45.586;10.264;2023-04-15T05:06:38;3.55;;;1.75;;
79399;SDS011;68856;45.586;10.264;2023-04-15T05:09:04;2.70;;;1.95;;
79399;SDS011;68856;45.586;10.264;2023-04-15T05:11:31;4.72;;;1.90;;
79399;SDS011;68856;45.586;10.264;2023-04-15T05:13:57;3.30;;;1.90;;
79399;SDS011;68856;45.586;10.264;2023-04-15T05:16:25;3.72;;;2.15;;
79399;SDS011;68856;45.586;10.264;2023-04-15T05:18:52;3.83;;;1.70;;
79399;SDS011;68856;45.586;10.264;2023-04-15T05:21:18;3.00;;;2.20;;
79399;SDS011;68856;45.586;10.264;2023-04-15T05:23:45;2.20;;;2.00;;
79399;SDS011;68856;45.586;10.264;2023-04-15T05:26:11;3.78;;;2.50;;
79399;SDS011;68856;45.586;10.264;2023-04-15T05:28:38;3.05;;;1.60;;
79399;SDS011;68856;45.586;10.264;2023-04-15T05:31:04;4.82;;;1.50;;
79399;SDS011;68856;45.586;10.264;2023-04-15T05:33:31;1.30;;;1.00;;
79399;SDS011;68856;45.586;10.264;2023-04-15T05:35:57;3.05;;;1.20;;
79399;SDS011;68856;45.586;10.264;2023-04-15T05:38:24;1.45;;;1.00;;
79399;SDS011;68856;45.586;10.264;2023-04-15T05:40:51;1.88;;;1.15;;
79399;SDS011;68856;45.586;10.264;2023-04-15T05:43:17;1.35;;;1.20;;
79399;SDS011;68856;45.586;10.264;2023-04-15T05:45:43;2.22;;;1.10;;
79399;SDS011;68856;45.586;10.264;2023-04-15T05:48:09;2.70;;;1.38;;
79399;SDS011;68856;45.586;10.264;2023-04-15T05:50:36;2.47;;;1.27;;
79399;SDS011;68856;45.586;10.264;2023-04-15T05:53:04;1.35;;;1.02;;
79399;SDS011;68856;45.586;10.264;2023-04-15T05:55:31;1.52;;;1.30;;
79399;SDS011;68856;45.586;10.264;2023-04-15T05:57:57;3.08;;;1.25;;
79399;SDS011;68856;45.586;10.264;2023-04-15T06:00:23;1.50;;;1.00;;
79399;SDS011;68856;45.586;10.264;2023-04-15T06:02:50;3.92;;;1.38;;
79399;SDS011;68856;45.586;10.264;2023-04-15T06:05:17;1.67;;;1.05;;
79399;SDS011;68856;45.586;10.264;2023-04-15T06:07:43;1.40;;;1.30;;
79399;SDS011;68856;45.586;10.264;2023-04-15T06:10:09;2.80;;;1.50;;
79399;SDS011;68856;45.586;10.264;2023-04-15T06:12:36;2.15;;;1.67;;
79399;SDS011;68856;45.586;10.264;2023-04-15T06:15:02;1.80;;;1.20;;
79399;SDS011;68856;45.586;10.264;2023-04-15T06:17:30;3.38;;;1.50;;
79399;SDS011;68856;45.586;10.264;2023-04-15T06:19:56;1.70;;;1.60;;
79399;SDS011;68856;45.586;10.264;2023-04-15T06:22:23;1.95;;;1.65;;
79399;SDS011;68856;45.586;10.264;2023-04-15T06:24:49;1.77;;;1.50;;
79399;SDS011;68856;45.586;10.264;2023-04-15T06:27:16;2.22;;;1.85;;
79399;SDS011;68856;45.586;10.264;2023-04-15T06:29:42;1.95;;;1.80;;
79399;SDS011;68856;45.586;10.264;2023-04-15T06:32:09;3.28;;;1.92;;
79399;SDS011;68856;45.586;10.264;2023-04-15T06:34:35;3.33;;;1.80;;
79399;SDS011;68856;45.586;10.264;2023-04-15T06:37:02;3.22;;;1.80;;
79399;SDS011;68856;45.586;10.264;2023-04-15T06:39:28;4.32;;;2.20;;
79399;SDS011;68856;45.586;10.264;2023-04-15T06:41:54;3.63;;;2.17;;
79399;SDS011;68856;45.586;10.264;2023-04-15T06:44:20;2.20;;;2.00;;
79399;SDS011;68856;45.586;10.264;2023-04-15T06:46:47;2.60;;;2.40;;
79399;SDS011;68856;45.586;10.264;2023-04-15T06:49:13;2.13;;;1.80;;
79399;SDS011;68856;45.586;10.264;2023-04-15T06:51:41;2.03;;;1.85;;
79399;SDS011;68856;45.586;10.264;2023-04-15T06:54:07;4.22;;;3.10;;
79399;SDS011;68856;45.586;10.264;2023-04-15T06:56:33;2.10;;;1.90;;
79399;SDS011;68856;45.586;10.264;2023-04-15T06:59:00;1.73;;;1.52;;
79399;SDS011;68856;45.586;10.264;2023-04-15T07:01:26;2.90;;;2.00;;
79399;SDS011;68856;45.586;10.264;2023-04-15T07:03:53;4.05;;;3.40;;
79399;SDS011;68856;45.586;10.264;2023-04-15T07:06:19;4.25;;;2.55;;
79399;SDS011;68856;45.586;10.264;2023-04-15T07:08:46;3.95;;;2.30;;
79399;SDS011;68856;45.586;10.264;2023-04-15T07:11:12;4.50;;;1.95;;
79399;SDS011;68856;45.586;10.264;2023-04-15T07:13:39;3.65;;;2.58;;
79399;SDS011;68856;45.586;10.264;2023-04-15T07:16:05;5.15;;;2.17;;
79399;SDS011;68856;45.586;10.264;2023-04-15T07:18:31;1.80;;;1.70;;
79399;SDS011;68856;45.586;10.264;2023-04-15T07:20:57;2.13;;;1.90;;
79399;SDS011;68856;45.586;10.264;2023-04-15T07:23:24;2.78;;;1.88;;
79399;SDS011;68856;45.586;10.264;2023-04-15T07:25:50;2.47;;;1.77;;
79399;SDS011;68856;45.586;10.264;2023-04-15T07:28:17;3.88;;;2.00;;
79399;SDS011;68856;45.586;10.264;2023-04-15T07:30:43;1.83;;;1.73;;
79399;SDS011;68856;45.586;10.264;2023-04-15T07:33:09;2.40;;;2.05;;
79399;SDS011;68856;45.586;10.264;2023-04-15T07:35:36;2.95;;;2.13;;
79399;SDS011;68856;45.586;10.264;2023-04-15T07:38:02;4.15;;;2.42;;
79399;SDS011;68856;45.586;10.264;2023-04-15T07:40:28;2.20;;;2.00;;
79399;SDS011;68856;45.586;10.264;2023-04-15T07:42:55;2.50;;;1.90;;
79399;SDS011;68856;45.586;10.264;2023-04-15T07:45:22;4.50;;;2.13;;
79399;SDS011;68856;45.586;10.264;2023-04-15T07:47:48;3.58;;;1.88;;
79399;SDS011;68856;45.586;10.264;2023-04-15T07:50:15;2.38;;;2.05;;
79399;SDS011;68856;45.586;10.264;2023-04-15T07:52:43;2.60;;;2.20;;
79399;SDS011;68856;45.586;10.264;2023-04-15T07:55:10;3.88;;;2.15;;
79399;SDS011;68856;45.586;10.264;2023-04-15T07:57:36;4.18;;;2.20;;
79399;SDS011;68856;45.586;10.264;2023-04-15T08:00:03;4.65;;;2.58;;
79399;SDS011;68856;45.586;10.264;2023-04-15T08:02:31;3.70;;;1.95;;
79399;SDS011;68856;45.586;10.264;2023-04-15T08:04:58;3.38;;;2.40;;
79399;SDS011;68856;45.586;10.264;2023-04-15T08:07:27;2.95;;;2.40;;
79399;SDS011;68856;45.586;10.264;2023-04-15T08:09:53;3.42;;;2.20;;
79399;SDS011;68856;45.586;10.264;2023-04-15T08:12:20;4.50;;;2.35;;
79399;SDS011;68856;45.586;10.264;2023-04-15T08:14:46;5.15;;;2.60;;
79399;SDS011;68856;45.586;10.264;2023-04-15T08:17:12;4.03;;;2.38;;
79399;SDS011;68856;45.586;10.264;2023-04-15T08:19:39;4.80;;;2.47;;
79399;SDS011;68856;45.586;10.264;2023-04-15T08:22:06;3.15;;;1.85;;
79399;SDS011;68856;45.586;10.264;2023-04-15T08:24:32;2.67;;;1.90;;
79399;SDS011;68856;45.586;10.264;2023-04-15T08:26:59;3.13;;;2.55;;
79399;SDS011;68856;45.586;10.264;2023-04-15T08:29:28;3.08;;;2.30;;
79399;SDS011;68856;45.586;10.264;2023-04-15T08:31:54;3.70;;;2.10;;
79399;SDS011;68856;45.586;10.264;2023-04-15T08:34:21;4.50;;;2.22;;
79399;SDS011;68856;45.586;10.264;2023-04-15T08:36:48;2.75;;;2.25;;
79399;SDS011;68856;45.586;10.264;2023-04-15T08:39:14;3.63;;;2.42;;
79399;SDS011;68856;45.586;10.264;2023-04-15T08:41:47;2.83;;;2.25;;
79399;SDS011;68856;45.586;10.264;2023-04-15T08:44:24;3.65;;;2.35;;
79399;SDS011;68856;45.586;10.264;2023-04-15T08:46:53;3.45;;;2.45;;
79399;SDS011;68856;45.586;10.264;2023-04-15T08:49:21;3.65;;;2.47;;
79399;SDS011;68856;45.586;10.264;2023-04-15T08:51:51;3.92;;;2.53;;
79399;SDS011;68856;45.586;10.264;2023-04-15T08:54:18;3.47;;;2.65;;
79399;SDS011;68856;45.586;10.264;2023-04-15T08:56:45;2.75;;;2.33;;
79399;SDS011;68856;45.586;10.264;2023-04-15T08:59:12;4.57;;;2.60;;
79399;SDS011;68856;45.586;10.264;2023-04-15T09:01:40;5.35;;;2.20;;
79399;SDS011;68856;45.586;10.264;2023-04-15T09:04:07;2.53;;;2.30;;
79399;SDS011;68856;45.586;10.264;2023-04-15T09:06:34;3.33;;;3.00;;
79399;SDS011;68856;45.586;10.264;2023-04-15T09:09:00;7.35;;;2.90;;
79399;SDS011;68856;45.586;10.264;2023-04-15T09:11:27;4.15;;;2.78;;
79399;SDS011;68856;45.586;10.264;2023-04-15T09:13:55;4.78;;;2.75;;
79399;SDS011;68856;45.586;10.264;2023-04-15T09:16:21;4.63;;;2.83;;
79399;SDS011;68856;45.586;10.264;2023-04-15T09:18:48;3.33;;;2.42;;
79399;SDS011;68856;45.586;10.264;2023-04-15T09:21:15;4.25;;;2.60;;
79399;SDS011;68856;45.586;10.264;2023-04-15T09:23:58;3.60;;;3.10;;
79399;SDS011;68856;45.586;10.264;2023-04-15T09:26:43;3.05;;;2.40;;
79399;SDS011;68856;45.586;10.264;2023-04-15T09:29:10;6.72;;;2.92;;
79399;SDS011;68856;45.586;10.264;2023-04-15T09:31:39;5.53;;;2.40;;
79399;SDS011;68856;45.586;10.264;2023-04-15T09:34:06;4.10;;;3.00;;
79399;SDS011;68856;45.586;10.264;2023-04-15T09:36:53;4.90;;;2.88;;
79399;SDS011;68856;45.586;10.264;2023-04-15T09:39:20;4.13;;;3.08;;
79399;SDS011;68856;45.586;10.264;2023-04-15T09:42:08;4.60;;;3.30;;
79399;SDS011;68856;45.586;10.264;2023-04-15T09:44:34;4.80;;;3.17;;
79399;SDS011;68856;45.586;10.264;2023-04-15T09:47:00;4.25;;;3.20;;
79399;SDS011;68856;45.586;10.264;2023-04-15T09:49:27;4.93;;;3.17;;
79399;SDS011;68856;45.586;10.264;2023-04-15T09:51:59;4.05;;;3.28;;
79399;SDS011;68856;45.586;10.264;2023-04-15T09:54:36;3.03;;;2.72;;
79399;SDS011;68856;45.586;10.264;2023-04-15T09:57:06;6.85;;;4.25;;
79399;SDS011;68856;45.586;10.264;2023-04-15T09:59:33;6.90;;;3.70;;
79399;SDS011;68856;45.586;10.264;2023-04-15T10:02:00;4.45;;;3.60;;
79399;SDS011;68856;45.586;10.264;2023-04-15T10:04:31;6.40;;;3.47;;
79399;SDS011;68856;45.586;10.264;2023-04-15T10:07:04;4.32;;;3.60;;
79399;SDS011;68856;45.586;10.264;2023-04-15T10:09:32;5.35;;;3.80;;
79399;SDS011;68856;45.586;10.264;2023-04-15T10:12:02;4.70;;;4.27;;
79399;SDS011;68856;45.586;10.264;2023-04-15T10:14:33;8.02;;;4.20;;
79399;SDS011;68856;45.586;10.264;2023-04-15T10:17:02;5.25;;;3.40;;
79399;SDS011;68856;45.586;10.264;2023-04-15T10:19:32;5.03;;;3.88;;
79399;SDS011;68856;45.586;10.264;2023-04-15T10:22:02;5.68;;;3.40;;
79399;SDS011;68856;45.586;10.264;2023-04-15T10:24:32;4.85;;;3.78;;
79399;SDS011;68856;45.586;10.264;2023-04-15T10:26:59;4.90;;;3.78;;
79399;SDS011;68856;45.586;10.264;2023-04-15T10:29:27;5.70;;;4.18;;
79399;SDS011;68856;45.586;10.264;2023-04-15T10:31:54;6.40;;;4.50;;
79399;SDS011;68856;45.586;10.264;2023-04-15T10:34:21;5.05;;;4.10;;
79399;SDS011;68856;45.586;10.264;2023-04-15T10:36:49;6.40;;;4.65;;
79399;SDS011;68856;45.586;10.264;2023-04-15T10:39:52;5.88;;;4.35;;
79399;SDS011;68856;45.586;10.264;2023-04-15T10:42:15;4.43;;;3.75;;
79399;SDS011;68856;45.586;10.264;2023-04-15T10:44:55;4.72;;;3.92;;
79399;SDS011;68856;45.586;10.264;2023-04-15T10:47:21;8.95;;;4.70;;
79399;SDS011;68856;45.586;10.264;2023-04-15T10:52:22;7.65;;;4.63;;
79399;SDS011;68856;45.586;10.264;2023-04-15T10:55:01;4.55;;;4.10;;
79399;SDS011;68856;45.586;10.264;2023-04-15T10:57:37;4.63;;;4.15;;
79399;SDS011;68856;45.586;10.264;2023-04-15T11:05:05;5.30;;;4.60;;
79399;SDS011;68856;45.586;10.264;2023-04-15T11:12:44;6.57;;;4.20;;
79399;SDS011;68856;45.586;10.264;2023-04-15T11:20:52;6.93;;;3.92;;
79399;SDS011;68856;45.586;10.264;2023-04-15T11:23:28;6.20;;;4.15;;
79399;SDS011;68856;45.586;10.264;2023-04-15T11:25:57;5.55;;;4.65;;
79399;SDS011;68856;45.586;10.264;2023-04-15T11:28:26;4.20;;;3.80;;
79399;SDS011;68856;45.586;10.264;2023-04-15T11:30:53;6.75;;;4.35;;
79399;SDS011;68856;45.586;10.264;2023-04-15T11:33:21;7.10;;;4.60;;
79399;SDS011;68856;45.586;10.264;2023-04-15T11:35:48;5.88;;;4.38;;
79399;SDS011;68856;45.586;10.264;2023-04-15T11:38:16;7.10;;;4.20;;
79399;SDS011;68856;45.586;10.264;2023-04-15T11:40:43;5.03;;;4.18;;
79399;SDS011;68856;45.586;10.264;2023-04-15T11:45:48;5.18;;;4.28;;
79399;SDS011;68856;45.586;10.264;2023-04-15T11:48:27;6.43;;;3.92;;
79399;SDS011;68856;45.586;10.264;2023-04-15T11:50:55;3.97;;;3.60;;
79399;SDS011;68856;45.586;10.264;2023-04-15T11:53:44;4.43;;;3.85;;
79399;SDS011;68856;45.586;10.264;2023-04-15T11:56:20;4.90;;;4.00;;
79399;SDS011;68856;45.586;10.264;2023-04-15T11:58:49;3.95;;;3.55;;
79399;SDS011;68856;45.586;10.264;2023-04-15T12:01:30;5.03;;;4.07;;
79399;SDS011;68856;45.586;10.264;2023-04-15T12:03:57;5.00;;;4.50;;
79399;SDS011;68856;45.586;10.264;2023-04-15T12:06:30;5.00;;;4.32;;
79399;SDS011;68856;45.586;10.264;2023-04-15T12:09:08;7.55;;;4.68;;
79399;SDS011;68856;45.586;10.264;2023-04-15T12:14:03;6.07;;;5.18;;
79399;SDS011;68856;45.586;10.264;2023-04-15T12:16:32;5.50;;;5.03;;
79399;SDS011;68856;45.586;10.264;2023-04-15T12:19:02;7.05;;;4.80;;
79399;SDS011;68856;45.586;10.264;2023-04-15T12:21:40;5.75;;;4.72;;
79399;SDS011;68856;45.586;10.264;2023-04-15T12:24:09;5.70;;;5.20;;
79399;SDS011;68856;45.586;10.264;2023-04-15T12:26:46;6.63;;;5.40;;
79399;SDS011;68856;45.586;10.264;2023-04-15T12:29:17;5.80;;;4.82;;
79399;SDS011;68856;45.586;10.264;2023-04-15T12:31:45;5.45;;;4.95;;
79399;SDS011;68856;45.586;10.264;2023-04-15T12:34:24;6.30;;;5.65;;
79399;SDS011;68856;45.586;10.264;2023-04-15T12:36:53;7.03;;;4.72;;
79399;SDS011;68856;45.586;10.264;2023-04-15T12:39:23;5.72;;;5.13;;
79399;SDS011;68856;45.586;10.264;2023-04-15T12:41:52;6.57;;;5.07;;
79399;SDS011;68856;45.586;10.264;2023-04-15T12:44:19;8.50;;;5.25;;
79399;SDS011;68856;45.586;10.264;2023-04-15T12:46:46;5.47;;;4.78;;
79399;SDS011;68856;45.586;10.264;2023-04-15T12:49:13;5.32;;;4.82;;
79399;SDS011;68856;45.586;10.264;2023-04-15T12:51:40;5.80;;;5.10;;
79399;SDS011;68856;45.586;10.264;2023-04-15T12:54:07;5.20;;;4.80;;
79399;SDS011;68856;45.586;10.264;2023-04-15T12:56:33;4.10;;;3.80;;
79399;SDS011;68856;45.586;10.264;2023-04-15T12:58:59;5.35;;;4.85;;
79399;SDS011;68856;45.586;10.264;2023-04-15T13:01:26;5.10;;;4.60;;
79399;SDS011;68856;45.586;10.264;2023-04-15T13:03:52;7.38;;;5.10;;
79399;SDS011;68856;45.586;10.264;2023-04-15T13:06:19;5.85;;;5.32;;
79399;SDS011;68856;45.586;10.264;2023-04-15T13:08:46;5.53;;;5.03;;
79399;SDS011;68856;45.586;10.264;2023-04-15T13:11:12;6.28;;;5.05;;
79399;SDS011;68856;45.586;10.264;2023-04-15T13:13:39;5.72;;;4.85;;
79399;SDS011;68856;45.586;10.264;2023-04-15T13:16:05;5.90;;;5.13;;
79399;SDS011;68856;45.586;10.264;2023-04-15T13:18:32;7.80;;;5.57;;
79399;SDS011;68856;45.586;10.264;2023-04-15T13:20:58;6.00;;;5.47;;
79399;SDS011;68856;45.586;10.264;2023-04-15T13:23:25;5.55;;;5.05;;
79399;SDS011;68856;45.586;10.264;2023-04-15T13:25:52;5.57;;;5.07;;
79399;SDS011;68856;45.586;10.264;2023-04-15T13:28:18;5.15;;;4.75;;
79399;SDS011;68856;45.586;10.264;2023-04-15T13:30:44;5.45;;;4.95;;
79399;SDS011;68856;45.586;10.264;2023-04-15T13:33:12;5.47;;;5.07;;
79399;SDS011;68856;45.586;10.264;2023-04-15T13:35:39;5.75;;;5.25;;
79399;SDS011;68856;45.586;10.264;2023-04-15T13:38:05;6.40;;;4.82;;
79399;SDS011;68856;45.586;10.264;2023-04-15T13:40:31;5.68;;;5.18;;
79399;SDS011;68856;45.586;10.264;2023-04-15T13:42:58;7.18;;;5.18;;
79399;SDS011;68856;45.586;10.264;2023-04-15T13:45:24;5.65;;;4.70;;
79399;SDS011;68856;45.586;10.264;2023-04-15T13:47:51;5.78;;;4.35;;
79399;SDS011;68856;45.586;10.264;2023-04-15T13:50:18;4.78;;;4.35;;
79399;SDS011;68856;45.586;10.264;2023-04-15T13:52:44;5.15;;;4.75;;
79399;SDS011;68856;45.586;10.264;2023-04-15T13:55:11;5.00;;;4.55;;
79399;SDS011;68856;45.586;10.264;2023-04-15T13:57:37;5.22;;;4.72;;
79399;SDS011;68856;45.586;10.264;2023-04-15T14:00:03;8.73;;;5.18;;
79399;SDS011;68856;45.586;10.264;2023-04-15T14:02:30;6.15;;;4.70;;
79399;SDS011;68856;45.586;10.264;2023-04-15T14:04:57;5.22;;;4.72;;
79399;SDS011;68856;45.586;10.264;2023-04-15T14:07:23;5.35;;;4.85;;
79399;SDS011;68856;45.586;10.264;2023-04-15T14:09:50;5.72;;;5.18;;
79399;SDS011;68856;45.586;10.264;2023-04-15T14:12:16;5.35;;;4.85;;
79399;SDS011;68856;45.586;10.264;2023-04-15T14:14:43;5.32;;;4.90;;
79399;SDS011;68856;45.586;10.264;2023-04-15T14:17:09;5.63;;;5.13;;
79399;SDS011;68856;45.586;10.264;2023-04-15T14:19:36;7.00;;;5.10;;
79399;SDS011;68856;45.586;10.264;2023-04-15T14:22:02;6.07;;;5.57;;
79399;SDS011;68856;45.586;10.264;2023-04-15T14:24:28;6.07;;;5.47;;
79399;SDS011;68856;45.586;10.264;2023-04-15T14:26:55;5.22;;;4.80;;
79399;SDS011;68856;45.586;10.264;2023-04-15T14:29:22;4.50;;;4.10;;
79399;SDS011;68856;45.586;10.264;2023-04-15T14:31:48;5.50;;;4.50;;
79399;SDS011;68856;45.586;10.264;2023-04-15T14:34:15;5.20;;;4.47;;
79399;SDS011;68856;45.586;10.264;2023-04-15T14:36:41;6.72;;;4.63;;
79399;SDS011;68856;45.586;10.264;2023-04-15T14:39:10;6.13;;;4.15;;
79399;SDS011;68856;45.586;10.264;2023-04-15T14:41:37;5.18;;;4.68;;
79399;SDS011;68856;45.586;10.264;2023-04-15T14:44:03;5.03;;;4.25;;
79399;SDS011;68856;45.586;10.264;2023-04-15T14:46:33;4.97;;;4.25;;
79399;SDS011;68856;45.586;10.264;2023-04-15T14:48:59;4.55;;;4.15;;
79399;SDS011;68856;45.586;10.264;2023-04-15T14:51:26;4.43;;;3.60;;
79399;SDS011;68856;45.586;10.264;2023-04-15T14:53:52;4.22;;;3.70;;
79399;SDS011;68856;45.586;10.264;2023-04-15T14:56:18;3.97;;;3.67;;
79399;SDS011;68856;45.586;10.264;2023-04-15T14:58:45;8.27;;;4.30;;
79399;SDS011;68856;45.586;10.264;2023-04-15T15:01:11;5.82;;;4.10;;